Time;durP1;ratioP1;P1;durP2;ratioP2;P2;SDS_P1;SDS_P2;PMS_P1;PMS_P2;Temp;Humidity;BMP_temperature;BMP_pressure;BME280_temperature;BME280_humidity;BME280_pressure;Samples;Min_cycle;Max_cycle;Signal;HPM_P1;HPM_P2
2021/12/03 00:00:55;;;;;;;1.80;1.70;;;0.10;98.20;;;;;;4887501;29;20481;-81
2021/12/03 00:03:24;;;;;;;2.17;1.97;;;0.10;98.20;;;;;;4909479;29;20473;-78
2021/12/03 00:05:53;;;;;;;1.80;1.70;;;0.10;98.20;;;;;;4896129;29;20492;-78
2021/12/03 00:08:20;;;;;;;1.97;1.80;;;0.10;98.20;;;;;;4915889;29;20476;-76
2021/12/03 00:10:53;;;;;;;1.97;1.80;;;0.10;98.20;;;;;;4899181;29;20471;-79
2021/12/03 00:13:20;;;;;;;1.80;1.70;;;0.10;98.20;;;;;;4911819;29;20502;-78
2021/12/03 00:15:48;;;;;;;1.80;1.70;;;0.10;98.20;;;;;;4890683;29;20489;-79
2021/12/03 00:18:15;;;;;;;1.80;1.70;;;0.10;98.20;;;;;;4908920;29;20679;-79
2021/12/03 00:20:43;;;;;;;4.73;4.43;;;0.10;98.20;;;;;;4894652;29;20489;-78
2021/12/03 00:23:11;;;;;;;1.80;1.70;;;0.10;98.20;;;;;;4902224;29;20501;-78
2021/12/03 00:25:38;;;;;;;1.80;1.70;;;0.10;98.20;;;;;;4905685;29;20531;-78
2021/12/03 00:28:06;;;;;;;2.00;1.80;;;0.10;98.20;;;;;;4904121;28;20492;-81
2021/12/03 00:30:35;;;;;;;1.80;1.70;;;0.10;98.20;;;;;;4902110;29;20497;-78
2021/12/03 00:33:04;;;;;;;1.90;1.80;;;0.10;98.20;;;;;;4901864;29;20487;-78
2021/12/03 00:35:31;;;;;;;1.90;1.80;;;0.00;98.20;;;;;;4900067;29;20489;-79
2021/12/03 00:37:59;;;;;;;2.10;1.90;;;0.00;98.20;;;;;;4903109;29;20575;-77
2021/12/03 00:40:29;;;;;;;1.93;1.73;;;0.00;98.20;;;;;;4905192;29;20903;-77
2021/12/03 00:42:56;;;;;;;1.80;1.70;;;0.00;98.20;;;;;;4902742;29;20706;-77
2021/12/03 00:45:24;;;;;;;1.83;1.70;;;0.10;98.20;;;;;;4903301;29;20528;-77
2021/12/03 00:47:51;;;;;;;2.10;1.90;;;0.10;98.20;;;;;;4902870;29;20510;-76
2021/12/03 00:50:21;;;;;;;1.90;1.70;;;0.10;98.20;;;;;;4904063;29;20497;-78
2021/12/03 00:52:49;;;;;;;1.80;1.70;;;0.10;98.20;;;;;;4902891;29;20968;-79
2021/12/03 00:55:18;;;;;;;1.80;1.70;;;0.10;98.20;;;;;;4900895;29;20500;-78
2021/12/03 00:57:45;;;;;;;1.80;1.70;;;0.10;98.20;;;;;;4906045;29;20484;-79
2021/12/03 01:00:16;;;;;;;1.80;1.70;;;0.10;98.20;;;;;;4900263;29;20470;-79
2021/12/03 01:02:43;;;;;;;1.80;1.70;;;0.10;98.20;;;;;;4901896;29;20543;-77
2021/12/03 01:05:11;;;;;;;1.80;1.70;;;0.10;98.20;;;;;;4898158;29;20497;-79
2021/12/03 01:07:38;;;;;;;1.90;1.80;;;0.10;98.20;;;;;;4900534;29;20572;-78
2021/12/03 01:10:07;;;;;;;1.90;1.80;;;0.10;98.20;;;;;;4904151;29;20476;-77
2021/12/03 01:12:35;;;;;;;2.00;1.90;;;0.20;98.20;;;;;;4898221;29;20524;-77
2021/12/03 01:15:04;;;;;;;2.00;1.80;;;0.20;98.20;;;;;;4897832;29;20488;-79
2021/12/03 01:17:30;;;;;;;1.80;1.70;;;0.20;98.20;;;;;;4893896;29;20596;-78
2021/12/03 01:19:59;;;;;;;1.90;1.73;;;0.20;98.20;;;;;;4901987;29;20517;-76
2021/12/03 01:22:26;;;;;;;1.80;1.70;;;0.20;98.20;;;;;;4891300;29;20493;-76
2021/12/03 01:24:53;;;;;;;1.80;1.70;;;0.20;98.20;;;;;;4907726;29;20489;-78
2021/12/03 01:27:20;;;;;;;2.00;1.80;;;0.20;98.20;;;;;;4893753;28;20894;-77
2021/12/03 01:29:48;;;;;;;1.80;1.70;;;0.20;98.20;;;;;;4906342;29;20470;-77
2021/12/03 01:32:15;;;;;;;1.80;1.70;;;0.20;98.20;;;;;;4893326;29;21081;-81
2021/12/03 01:34:42;;;;;;;1.90;1.80;;;0.10;98.20;;;;;;4902018;29;20509;-78
2021/12/03 01:37:09;;;;;;;1.80;1.70;;;0.10;98.20;;;;;;4889613;29;20488;-76
2021/12/03 01:39:36;;;;;;;1.80;1.70;;;0.10;98.20;;;;;;4907404;29;20633;-77
2021/12/03 01:42:03;;;;;;;1.80;1.70;;;0.20;98.20;;;;;;4891791;29;20563;-77
2021/12/03 01:44:30;;;;;;;1.73;1.63;;;0.20;98.20;;;;;;4907609;29;20675;-77
2021/12/03 01:46:58;;;;;;;1.87;1.77;;;0.20;98.20;;;;;;4897259;29;20488;-77
2021/12/03 01:49:25;;;;;;;2.73;2.53;;;0.30;98.20;;;;;;4907947;29;20858;-79
2021/12/03 01:51:52;;;;;;;1.80;1.70;;;0.30;98.20;;;;;;4891005;29;20499;-77
2021/12/03 01:54:19;;;;;;;1.80;1.70;;;0.30;98.20;;;;;;4907154;29;20549;-77
2021/12/03 01:56:46;;;;;;;1.73;1.63;;;0.30;98.20;;;;;;4891684;29;20500;-77
2021/12/03 01:59:13;;;;;;;1.90;1.80;;;0.30;98.20;;;;;;4908637;29;20471;-80
2021/12/03 02:01:40;;;;;;;1.80;1.70;;;0.40;98.20;;;;;;4889292;29;20528;-78
2021/12/03 02:04:09;;;;;;;1.70;1.60;;;0.40;98.20;;;;;;4905545;29;20544;-77
2021/12/03 02:06:38;;;;;;;1.70;1.60;;;0.50;98.20;;;;;;4890411;29;21182;-80
2021/12/03 02:09:07;;;;;;;1.80;1.70;;;0.50;98.20;;;;;;4903803;29;20471;-78
2021/12/03 02:11:35;;;;;;;1.80;1.70;;;0.50;98.20;;;;;;4888972;29;20937;-78
2021/12/03 02:14:02;;;;;;;1.80;1.70;;;0.60;98.20;;;;;;4907526;29;20576;-80
2021/12/03 02:16:29;;;;;;;1.80;1.70;;;0.70;98.20;;;;;;4888309;29;20601;-79
2021/12/03 02:18:56;;;;;;;1.97;1.80;;;0.70;98.20;;;;;;4909061;29;20465;-81
2021/12/03 02:21:25;;;;;;;1.70;1.60;;;0.80;98.20;;;;;;4890060;29;20523;-79
2021/12/03 02:23:55;;;;;;;1.73;1.63;;;0.80;98.20;;;;;;4908960;29;20522;-79
2021/12/03 02:26:22;;;;;;;1.70;1.60;;;0.90;98.20;;;;;;4885890;29;20947;-78
2021/12/03 02:28:52;;;;;;;1.80;1.70;;;1.00;98.20;;;;;;4894823;29;20538;-80
2021/12/03 02:31:21;;;;;;;1.80;1.70;;;1.00;98.20;;;;;;4886632;28;20484;-77
2021/12/03 02:33:49;;;;;;;1.70;1.60;;;1.00;98.20;;;;;;4904866;29;20489;-78
2021/12/03 02:36:16;;;;;;;1.80;1.70;;;1.10;98.20;;;;;;4874093;28;20488;-79
2021/12/03 02:38:45;;;;;;;1.70;1.60;;;1.10;98.20;;;;;;4896416;29;20548;-78
2021/12/03 02:41:13;;;;;;;1.70;1.60;;;1.20;98.20;;;;;;4896141;28;20507;-78
2021/12/03 02:43:41;;;;;;;1.80;1.70;;;1.20;98.20;;;;;;4902416;29;20876;-79
2021/12/03 02:46:08;;;;;;;1.93;1.73;;;1.30;98.20;;;;;;4888382;29;20666;-78
2021/12/03 02:48:35;;;;;;;1.70;1.60;;;1.30;98.20;;;;;;4905920;29;20524;-78
2021/12/03 02:51:03;;;;;;;1.70;1.60;;;1.30;98.20;;;;;;4888298;29;20796;-77
2021/12/03 02:53:30;;;;;;;1.93;1.77;;;1.30;98.20;;;;;;4912089;29;20562;-77
2021/12/03 02:55:58;;;;;;;1.70;1.60;;;1.40;98.20;;;;;;4889717;28;20516;-77
2021/12/03 02:58:25;;;;;;;2.00;1.80;;;1.40;98.20;;;;;;4914497;29;20469;-77
2021/12/03 03:00:53;;;;;;;1.70;1.50;;;1.40;98.20;;;;;;4889544;29;20495;-79
2021/12/03 03:03:20;;;;;;;1.77;1.67;;;1.50;98.20;;;;;;4908351;29;20472;-76
2021/12/03 03:05:52;;;;;;;1.70;1.60;;;1.50;98.20;;;;;;4895081;29;20489;-77
2021/12/03 03:08:20;;;;;;;1.80;1.70;;;1.50;98.20;;;;;;4914759;29;20480;-77
2021/12/03 03:10:46;;;;;;;1.70;1.60;;;1.60;98.20;;;;;;4898837;29;20469;-78
2021/12/03 03:13:15;;;;;;;3.60;3.40;;;1.60;98.20;;;;;;4905508;29;20484;-77
2021/12/03 03:15:43;;;;;;;1.70;1.50;;;1.60;98.20;;;;;;4895680;29;20694;-77
2021/12/03 03:18:13;;;;;;;1.70;1.50;;;1.70;98.20;;;;;;4904573;29;20515;-78
2021/12/03 03:20:42;;;;;;;1.70;1.60;;;1.70;98.20;;;;;;4895598;29;20471;-78
2021/12/03 03:23:12;;;;;;;1.70;1.60;;;1.70;98.20;;;;;;4889958;29;20589;-78
2021/12/03 03:25:40;;;;;;;2.03;1.87;;;1.70;98.20;;;;;;4897720;29;20488;-79
2021/12/03 03:28:07;;;;;;;1.70;1.50;;;1.70;98.20;;;;;;4901079;29;20484;-79
2021/12/03 03:30:36;;;;;;;1.70;1.60;;;1.80;98.20;;;;;;4899224;29;20504;-80
2021/12/03 03:33:04;;;;;;;1.70;1.60;;;1.80;98.20;;;;;;4882844;29;20930;-79
2021/12/03 03:35:31;;;;;;;1.70;1.60;;;1.80;98.20;;;;;;4897934;29;20525;-80
2021/12/03 03:37:59;;;;;;;1.80;1.70;;;1.90;98.20;;;;;;4899077;29;20527;-79
2021/12/03 03:40:25;;;;;;;1.73;1.63;;;1.90;98.20;;;;;;4893882;29;20552;-79
2021/12/03 03:42:53;;;;;;;1.70;1.60;;;1.90;98.20;;;;;;4893526;29;20518;-79
2021/12/03 03:45:23;;;;;;;1.80;1.70;;;1.90;98.20;;;;;;4900605;29;21074;-79
2021/12/03 03:47:52;;;;;;;1.67;1.50;;;1.90;98.20;;;;;;4894451;29;20956;-79
2021/12/03 03:50:21;;;;;;;1.70;1.60;;;2.00;98.20;;;;;;4894036;29;20473;-78
2021/12/03 03:52:49;;;;;;;1.70;1.50;;;2.00;98.20;;;;;;4892213;29;20591;-79
2021/12/03 03:55:18;;;;;;;2.10;1.90;;;2.00;98.20;;;;;;4901683;29;20488;-81
2021/12/03 03:57:45;;;;;;;1.80;1.70;;;2.00;98.20;;;;;;4897022;29;20572;-82
2021/12/03 04:00:16;;;;;;;1.70;1.50;;;2.10;98.20;;;;;;4900153;29;20756;-80
2021/12/03 04:02:43;;;;;;;1.70;1.60;;;2.10;98.20;;;;;;4898827;29;20572;-79
2021/12/03 04:05:12;;;;;;;1.70;1.60;;;2.10;98.20;;;;;;4901402;29;20505;-80
2021/12/03 04:07:40;;;;;;;1.70;1.50;;;2.10;98.20;;;;;;4901496;29;20519;-80
2021/12/03 04:10:08;;;;;;;1.70;1.50;;;2.20;98.20;;;;;;4901087;29;20476;-79
2021/12/03 04:12:36;;;;;;;1.70;1.57;;;2.20;98.20;;;;;;4900990;29;20488;-79
2021/12/03 04:15:05;;;;;;;2.10;1.90;;;2.20;98.20;;;;;;4903118;29;20489;-81
2021/12/03 04:17:31;;;;;;;2.00;1.80;;;2.20;98.20;;;;;;4898777;29;20493;-84
2021/12/03 04:19:58;;;;;;;1.70;1.60;;;2.30;98.20;;;;;;4897189;29;20471;-80
2021/12/03 04:22:27;;;;;;;1.70;1.50;;;2.30;98.20;;;;;;4897820;29;20488;-82
2021/12/03 04:24:56;;;;;;;1.70;1.60;;;2.30;98.20;;;;;;4904819;29;20479;-79
2021/12/03 04:27:23;;;;;;;1.70;1.53;;;2.30;98.20;;;;;;4901574;29;20693;-79
2021/12/03 04:29:50;;;;;;;1.70;1.53;;;2.40;98.20;;;;;;4902941;29;20840;-80
2021/12/03 04:32:19;;;;;;;1.70;1.60;;;2.40;98.20;;;;;;4898098;29;21082;-79
2021/12/03 04:34:46;;;;;;;1.80;1.70;;;2.40;98.20;;;;;;4902366;29;20948;-80
2021/12/03 04:37:13;;;;;;;1.70;1.60;;;2.40;98.20;;;;;;4892744;29;20871;-79
2021/12/03 04:39:41;;;;;;;1.70;1.57;;;2.40;98.20;;;;;;4904303;29;20472;-80
2021/12/03 04:42:09;;;;;;;1.70;1.50;;;2.40;98.20;;;;;;4887690;29;20595;-79
2021/12/03 04:44:37;;;;;;;1.70;1.50;;;2.50;98.20;;;;;;4897882;29;20674;-79
2021/12/03 04:47:04;;;;;;;1.70;1.60;;;2.50;98.20;;;;;;4891311;29;20476;-79
2021/12/03 04:49:32;;;;;;;1.70;1.40;;;2.50;98.20;;;;;;4901313;29;20474;-80
2021/12/03 04:51:59;;;;;;;1.70;1.50;;;2.50;98.20;;;;;;4888218;29;20511;-80
2021/12/03 04:54:26;;;;;;;1.70;1.50;;;2.50;98.20;;;;;;4905385;29;21001;-82
2021/12/03 04:56:54;;;;;;;1.70;1.50;;;2.60;98.20;;;;;;4896907;29;21008;-81
2021/12/03 04:59:22;;;;;;;1.70;1.40;;;2.60;98.20;;;;;;4901834;29;21059;-81
2021/12/03 05:01:49;;;;;;;1.70;1.50;;;2.60;98.20;;;;;;4892608;29;20537;-80
2021/12/03 05:04:16;;;;;;;1.70;1.60;;;2.60;98.20;;;;;;4902130;29;20877;-82
2021/12/03 05:06:54;;;;;;;1.70;1.60;;;2.60;98.20;;;;;;4892254;29;20580;-82
2021/12/03 05:09:23;;;;;;;1.70;1.60;;;2.60;98.20;;;;;;4903646;29;20980;-80
2021/12/03 05:11:50;;;;;;;1.70;1.50;;;2.60;98.20;;;;;;4889363;29;20494;-80
2021/12/03 05:14:18;;;;;;;1.70;1.50;;;2.70;98.20;;;;;;4899502;29;20470;-80
2021/12/03 05:16:48;;;;;;;1.70;1.50;;;2.70;98.20;;;;;;4891851;29;20497;-80
2021/12/03 05:19:15;;;;;;;1.70;1.60;;;2.70;98.20;;;;;;4910973;29;20524;-79
2021/12/03 05:21:42;;;;;;;1.67;1.50;;;2.70;98.20;;;;;;4890699;29;20508;-81
2021/12/03 05:24:10;;;;;;;1.70;1.60;;;2.70;98.20;;;;;;4909151;29;20936;-83
2021/12/03 05:26:38;;;;;;;1.90;1.80;;;2.70;98.20;;;;;;4895558;29;20556;-82
2021/12/03 05:29:06;;;;;;;1.70;1.50;;;2.80;98.20;;;;;;4911113;29;20817;-81
2021/12/03 05:31:37;;;;;;;1.70;1.50;;;2.80;98.20;;;;;;4888963;29;20806;-84
2021/12/03 05:34:09;;;;;;;1.70;1.50;;;2.80;98.20;;;;;;4901145;29;21070;-82
2021/12/03 05:36:37;;;;;;;1.70;1.60;;;2.80;98.20;;;;;;4891746;29;20733;-81
2021/12/03 05:39:07;;;;;;;1.70;1.50;;;2.80;98.20;;;;;;4903582;29;20480;-82
2021/12/03 05:41:35;;;;;;;1.70;1.50;;;2.80;98.20;;;;;;4888365;29;20570;-81
2021/12/03 05:44:03;;;;;;;1.70;1.50;;;2.80;98.20;;;;;;4905473;29;21020;-81
2021/12/03 05:46:30;;;;;;;1.67;1.50;;;2.80;98.20;;;;;;4889748;29;20492;-82
2021/12/03 05:49:02;;;;;;;1.70;1.60;;;2.80;98.20;;;;;;4912988;29;20632;-81
2021/12/03 05:51:30;;;;;;;1.87;1.77;;;2.90;98.20;;;;;;4891488;29;20485;-79
2021/12/03 05:53:57;;;;;;;1.67;1.40;;;2.90;98.20;;;;;;4908450;29;20504;-83
2021/12/03 05:56:24;;;;;;;1.70;1.50;;;2.90;98.20;;;;;;4889455;29;20499;-81
2021/12/03 05:58:52;;;;;;;1.67;1.50;;;2.90;98.20;;;;;;4907276;29;20473;-81
2021/12/03 06:01:19;;;;;;;1.70;1.50;;;2.90;98.20;;;;;;4886480;29;20492;-80
2021/12/03 06:03:47;;;;;;;1.70;1.50;;;3.00;98.20;;;;;;4905307;29;20968;-81
2021/12/03 06:06:16;;;;;;;1.70;1.50;;;3.00;98.20;;;;;;4885514;29;20572;-79
2021/12/03 06:08:43;;;;;;;1.70;1.50;;;3.00;98.20;;;;;;4911948;29;20462;-82
2021/12/03 06:11:10;;;;;;;1.70;1.57;;;3.00;98.20;;;;;;4891750;28;20571;-82
2021/12/03 06:13:39;;;;;;;1.63;1.47;;;3.00;98.20;;;;;;4900930;29;20461;-86
2021/12/03 06:16:08;;;;;;;1.70;1.50;;;3.00;98.20;;;;;;4887799;29;20566;-79
2021/12/03 06:18:35;;;;;;;1.67;1.50;;;3.00;98.20;;;;;;4904586;29;20544;-79
2021/12/03 06:21:03;;;;;;;1.70;1.50;;;3.10;98.20;;;;;;4885526;29;20469;-80
2021/12/03 06:23:33;;;;;;;1.70;1.60;;;3.10;98.20;;;;;;4898704;29;20474;-79
2021/12/03 06:26:00;;;;;;;1.70;1.60;;;3.10;98.20;;;;;;4891394;28;20571;-80
2021/12/03 06:28:30;;;;;;;1.80;1.70;;;3.10;98.20;;;;;;4907879;29;20492;-81
2021/12/03 06:30:58;;;;;;;1.67;1.40;;;3.10;98.20;;;;;;4886527;29;20681;-81
2021/12/03 06:33:25;;;;;;;1.67;1.50;;;3.10;98.20;;;;;;4902431;29;20468;-80
2021/12/03 06:35:52;;;;;;;1.70;1.50;;;3.10;98.20;;;;;;4887121;29;21136;-83
2021/12/03 06:38:20;;;;;;;1.73;1.63;;;3.10;98.20;;;;;;4914216;29;20898;-81
2021/12/03 06:40:49;;;;;;;1.70;1.53;;;3.20;98.20;;;;;;4895053;29;20579;-81
2021/12/03 06:43:16;;;;;;;1.80;1.70;;;3.20;98.20;;;;;;4909770;29;20476;-81
2021/12/03 06:45:44;;;;;;;1.70;1.60;;;3.20;98.20;;;;;;4898403;29;20493;-82
2021/12/03 06:48:11;;;;;;;1.63;1.50;;;3.20;98.20;;;;;;4904334;29;20918;-82
2021/12/03 06:50:38;;;;;;;1.70;1.60;;;3.20;98.20;;;;;;4895978;29;20541;-84
2021/12/03 06:53:07;;;;;;;1.70;1.57;;;3.20;98.20;;;;;;4899531;29;20484;-80
2021/12/03 06:55:40;;;;;;;1.70;1.60;;;3.20;98.20;;;;;;4890881;29;20495;-81
2021/12/03 06:58:09;;;;;;;1.70;1.40;;;3.20;98.20;;;;;;4901211;29;21070;-79
2021/12/03 07:00:36;;;;;;;1.73;1.63;;;3.30;98.20;;;;;;4891730;29;20494;-80
2021/12/03 07:03:03;;;;;;;1.70;1.60;;;3.30;98.20;;;;;;4900041;29;20566;-81
2021/12/03 07:05:30;;;;;;;1.70;1.50;;;3.30;98.20;;;;;;4892270;29;20547;-79
2021/12/03 07:07:57;;;;;;;1.70;1.50;;;3.30;98.20;;;;;;4903894;29;20487;-80
2021/12/03 07:10:24;;;;;;;1.70;1.50;;;3.30;98.20;;;;;;4893226;29;20501;-79
2021/12/03 07:12:51;;;;;;;1.70;1.50;;;3.40;98.20;;;;;;4894125;29;20891;-85
2021/12/03 07:15:20;;;;;;;1.67;1.50;;;3.40;98.20;;;;;;4897278;29;21014;-79
2021/12/03 07:17:50;;;;;;;1.67;1.47;;;3.40;98.20;;;;;;4898903;29;20563;-79
2021/12/03 07:20:18;;;;;;;2.07;1.87;;;3.40;98.20;;;;;;4898243;29;20465;-81
2021/12/03 07:22:45;;;;;;;1.70;1.50;;;3.40;98.20;;;;;;4898611;29;20490;-81
2021/12/03 07:25:13;;;;;;;1.67;1.40;;;3.50;98.20;;;;;;4906673;29;20493;-79
2021/12/03 07:27:41;;;;;;;1.70;1.60;;;3.50;98.20;;;;;;4896912;28;21072;-79
2021/12/03 07:30:09;;;;;;;1.70;1.60;;;3.50;98.20;;;;;;4905375;29;20496;-81
2021/12/03 07:32:38;;;;;;;1.70;1.57;;;3.50;98.20;;;;;;4893604;29;20484;-79
2021/12/03 07:35:07;;;;;;;1.67;1.50;;;3.50;98.20;;;;;;4898190;29;20596;-82
2021/12/03 07:37:35;;;;;;;1.70;1.60;;;3.50;98.20;;;;;;4899839;28;20511;-79
2021/12/03 07:40:03;;;;;;;1.67;1.50;;;3.50;98.20;;;;;;4900535;29;20471;-79
2021/12/03 07:42:30;;;;;;;1.70;1.50;;;3.40;98.20;;;;;;4900171;28;20496;-81
2021/12/03 07:44:58;;;;;;;1.70;1.60;;;3.40;98.20;;;;;;4906281;29;20574;-79
2021/12/03 07:47:25;;;;;;;1.67;1.47;;;3.40;98.20;;;;;;4900317;29;20511;-80
2021/12/03 07:49:54;;;;;;;1.70;1.50;;;3.40;98.20;;;;;;4908090;29;20491;-79
2021/12/03 07:52:25;;;;;;;1.63;1.40;;;3.40;98.20;;;;;;4901782;29;20484;-79
2021/12/03 07:54:52;;;;;;;1.67;1.40;;;3.40;98.20;;;;;;4905624;29;20994;-79
2021/12/03 07:57:19;;;;;;;1.70;1.43;;;3.40;98.20;;;;;;4898255;29;20491;-80
2021/12/03 07:59:47;;;;;;;1.67;1.40;;;3.40;98.20;;;;;;4906497;29;20498;-79
2021/12/03 08:02:14;;;;;;;1.73;1.63;;;3.40;98.20;;;;;;4900963;29;20565;-79
2021/12/03 08:04:41;;;;;;;1.60;1.40;;;3.40;98.20;;;;;;4902128;29;20453;-80
2021/12/03 08:07:10;;;;;;;1.70;1.60;;;3.40;98.20;;;;;;4898808;29;20619;-79
2021/12/03 08:09:37;;;;;;;1.70;1.50;;;3.40;98.20;;;;;;4902749;29;20789;-79
2021/12/03 08:12:06;;;;;;;1.70;1.50;;;3.40;98.20;;;;;;4896261;29;20603;-79
2021/12/03 08:14:33;;;;;;;1.60;1.50;;;3.40;98.20;;;;;;4907469;29;20626;-80
2021/12/03 08:17:00;;;;;;;1.67;1.50;;;3.40;98.20;;;;;;4896888;29;20487;-79
2021/12/03 08:19:27;;;;;;;1.67;1.50;;;3.40;98.20;;;;;;4909796;29;20946;-78
2021/12/03 08:21:54;;;;;;;1.70;1.50;;;3.40;98.20;;;;;;4889543;29;20503;-78
2021/12/03 08:24:23;;;;;;;1.67;1.40;;;3.40;98.20;;;;;;4903199;29;20555;-79
2021/12/03 08:26:50;;;;;;;1.63;1.50;;;3.40;98.20;;;;;;4897243;29;20900;-78
2021/12/03 08:29:17;;;;;;;1.63;1.50;;;3.40;98.20;;;;;;4910079;29;20528;-80
2021/12/03 08:31:45;;;;;;;1.70;1.60;;;3.50;98.20;;;;;;4890905;29;20487;-80
2021/12/03 08:34:12;;;;;;;1.63;1.50;;;3.50;98.20;;;;;;4903678;29;20488;-80
2021/12/03 08:36:39;;;;;;;1.67;1.50;;;3.50;98.20;;;;;;4892909;29;20492;-80
2021/12/03 08:39:07;;;;;;;1.70;1.53;;;3.50;98.20;;;;;;4906712;29;20560;-79
2021/12/03 08:41:36;;;;;;;1.70;1.50;;;3.50;98.20;;;;;;4890388;29;21056;-79
2021/12/03 08:44:05;;;;;;;1.63;1.50;;;3.50;98.20;;;;;;4915231;29;20559;-80
2021/12/03 08:46:32;;;;;;;1.60;1.40;;;3.50;98.20;;;;;;4890050;29;20528;-82
2021/12/03 08:49:07;;;;;;;1.67;1.50;;;3.50;98.20;;;;;;4916915;29;20469;-79
2021/12/03 08:51:48;;;;;;;1.70;1.47;;;3.60;98.20;;;;;;4887971;29;20484;-80
2021/12/03 08:57:01;;;;;;;1.63;1.40;;;3.60;98.20;;;;;;4897508;29;20498;-79
2021/12/03 08:59:28;;;;;;;1.63;1.40;;;3.60;98.20;;;;;;4907439;29;20478;-80
2021/12/03 09:01:55;;;;;;;1.60;1.40;;;3.70;98.20;;;;;;4898438;29;20563;-78
2021/12/03 09:04:23;;;;;;;1.67;1.47;;;3.70;98.20;;;;;;4903830;29;20465;-79
2021/12/03 09:06:51;;;;;;;1.70;1.50;;;3.70;98.20;;;;;;4892394;29;20488;-77
2021/12/03 09:09:18;;;;;;;1.70;1.50;;;3.70;98.20;;;;;;4907990;29;20520;-78
2021/12/03 09:11:45;;;;;;;1.63;1.40;;;3.80;98.20;;;;;;4885796;29;20868;-79
2021/12/03 09:14:18;;;;;;;1.70;1.40;;;3.80;98.20;;;;;;4902314;29;20896;-78
2021/12/03 09:16:50;;;;;;;1.70;1.40;;;3.90;98.20;;;;;;4889617;29;20496;-77
2021/12/03 09:19:23;;;;;;;1.63;1.40;;;3.90;98.20;;;;;;4904763;29;20469;-80
2021/12/03 09:21:50;;;;;;;1.70;1.50;;;4.00;98.20;;;;;;4896433;29;21025;-81
2021/12/03 09:24:20;;;;;;;1.63;1.40;;;4.00;98.20;;;;;;4903420;29;20793;-83
2021/12/03 09:26:47;;;;;;;1.70;1.50;;;4.00;98.20;;;;;;4897649;28;20504;-81
2021/12/03 09:29:23;;;;;;;1.63;1.40;;;4.10;98.20;;;;;;4897725;29;20544;-79
2021/12/03 09:31:50;;;;;;;1.67;1.40;;;4.10;98.20;;;;;;4892294;29;20484;-79
2021/12/03 09:34:20;;;;;;;1.67;1.40;;;4.10;98.20;;;;;;4896424;29;20465;-81
2021/12/03 09:36:47;;;;;;;1.67;1.40;;;4.10;98.20;;;;;;4890886;29;20492;-79
2021/12/03 09:39:18;;;;;;;1.70;1.40;;;4.20;98.20;;;;;;4902927;29;20474;-80
2021/12/03 09:41:45;;;;;;;1.63;1.40;;;4.20;98.20;;;;;;4889135;29;20580;-79
2021/12/03 09:44:12;;;;;;;1.70;1.60;;;4.30;98.20;;;;;;4907550;29;20481;-85
2021/12/03 09:46:41;;;;;;;1.60;1.40;;;4.30;98.20;;;;;;4895673;29;20498;-78
2021/12/03 09:51:54;;;;;;;1.60;1.40;;;4.40;98.20;;;;;;4904427;23;20508;-75
2021/12/03 09:54:29;;;;;;;1.63;1.40;;;4.50;98.20;;;;;;4903769;29;20909;-75
2021/12/03 09:57:01;;;;;;;1.70;1.50;;;4.50;98.20;;;;;;4902296;29;20851;-78
2021/12/03 09:59:55;;;;;;;1.60;1.40;;;4.60;98.20;;;;;;4899287;29;20472;-74
2021/12/03 10:02:40;;;;;;;1.60;1.40;;;4.60;98.20;;;;;;4879329;29;20568;-75
2021/12/03 10:13:49;;;;;;;1.60;1.33;;;4.70;98.20;;;;;;4895727;29;20521;-77
2021/12/03 10:16:29;;;;;;;1.60;1.30;;;4.70;98.20;;;;;;4879936;29;21186;-77
2021/12/03 10:18:58;;;;;;;1.60;1.40;;;4.80;98.20;;;;;;4897742;29;20474;-77
2021/12/03 10:21:56;;;;;;;1.63;1.40;;;4.80;98.20;;;;;;4882764;29;20500;-75
2021/12/03 10:27:39;;;;;;;1.60;1.30;;;4.80;98.20;;;;;;4883390;29;21142;-75
2021/12/03 10:30:25;;;;;;;1.60;1.40;;;4.80;98.20;;;;;;4887834;29;20469;-75
2021/12/03 10:33:14;;;;;;;1.63;1.40;;;4.80;98.20;;;;;;4864722;29;21618;-75
2021/12/03 10:38:45;;;;;;;1.60;1.30;;;4.90;98.20;;;;;;4871887;29;20858;-75
2021/12/03 10:41:25;;;;;;;1.63;1.40;;;4.90;98.20;;;;;;4874112;29;20493;-75
2021/12/03 10:52:33;;;;;;;1.97;1.60;;;5.10;98.20;;;;;;4883318;29;20489;-73
2021/12/03 10:58:05;;;;;;;1.60;1.30;;;5.10;98.20;;;;;;4887763;29;20552;-73
2021/12/03 11:17:57;;;;;;;1.70;1.40;;;5.20;98.20;;;;;;4878988;29;20524;-75
2021/12/03 11:29:05;;;;;;;1.70;1.50;;;5.30;98.20;;;;;;4887292;29;20488;-75
2021/12/03 11:58:52;;;;;;;1.70;1.40;;;5.30;98.20;;;;;;4817055;29;20501;-73
2021/12/03 13:09:54;;;;;;;1.60;1.33;;;5.60;98.20;;;;;;4879707;29;20458;-76
2021/12/03 13:27:06;;;;;;;1.70;1.30;;;5.70;98.20;;;;;;4873865;29;20608;-75
2021/12/03 13:33:04;;;;;;;1.60;1.30;;;5.80;98.20;;;;;;4855837;29;20501;-76
2021/12/03 14:40:54;;;;;;;1.67;1.40;;;5.40;98.20;;;;;;4883932;29;20470;-74
2021/12/03 14:43:34;;;;;;;1.60;1.30;;;5.40;98.20;;;;;;4865691;29;20488;-74
2021/12/03 14:54:54;;;;;;;1.60;1.30;;;5.30;98.20;;;;;;4879740;29;20469;-74
2021/12/03 14:57:37;;;;;;;1.70;1.40;;;5.30;98.20;;;;;;4869874;29;20485;-75
2021/12/03 15:03:24;;;;;;;1.70;1.50;;;5.30;98.20;;;;;;4870612;29;21138;-77
2021/12/03 15:06:11;;;;;;;1.60;1.40;;;5.30;98.20;;;;;;4875689;29;20660;-73
2021/12/03 15:08:43;;;;;;;1.70;1.40;;;5.30;98.20;;;;;;4885194;29;20473;-73
2021/12/03 15:11:45;;;;;;;1.70;1.40;;;5.30;98.20;;;;;;4878185;29;20500;-74
2021/12/03 15:20:20;;;;;;;1.60;1.30;;;5.20;98.20;;;;;;4887829;29;20485;-75
2021/12/03 15:25:51;;;;;;;1.63;1.40;;;5.10;98.20;;;;;;4876801;29;20465;-76
2021/12/03 15:31:21;;;;;;;1.60;1.30;;;5.10;98.20;;;;;;4867440;29;20979;-75
2021/12/03 15:33:53;;;;;;;1.70;1.50;;;5.00;98.20;;;;;;4894590;29;20560;-75
2021/12/03 15:36:30;;;;;;;1.63;1.37;;;5.00;98.20;;;;;;4877110;29;20488;-75
2021/12/03 15:39:09;;;;;;;1.70;1.40;;;4.90;98.20;;;;;;4892132;29;20474;-75
2021/12/03 15:58:47;;;;;;;1.60;1.40;;;4.70;98.20;;;;;;4883159;29;20551;-74
2021/12/03 16:04:04;;;;;;;1.70;1.47;;;4.50;98.20;;;;;;4878051;29;20469;-73
2021/12/03 16:06:45;;;;;;;1.67;1.37;;;4.50;98.20;;;;;;4871488;29;20907;-75
2021/12/03 16:09:22;;;;;;;3.53;3.20;;;4.40;98.20;;;;;;4883483;29;20480;-75
2021/12/03 16:11:55;;;;;;;1.67;1.40;;;4.40;98.20;;;;;;4882340;29;20496;-76
2021/12/03 16:20:31;;;;;;;1.67;1.40;;;4.30;98.20;;;;;;4883283;29;20469;-74
2021/12/03 16:23:22;;;;;;;1.70;1.60;;;4.30;98.20;;;;;;4870088;29;20497;-74
2021/12/03 16:45:24;;;;;;;1.70;1.50;;;4.40;98.20;;;;;;4887576;29;20542;-77
2021/12/03 16:48:19;;;;;;;1.60;1.40;;;4.40;98.20;;;;;;4874966;29;21187;-76
2021/12/03 16:53:32;;;;;;;1.70;1.57;;;4.50;98.20;;;;;;4891976;29;20487;-74
2021/12/03 16:56:02;;;;;;;1.70;1.60;;;4.50;98.20;;;;;;4871062;29;20482;-74
2021/12/03 16:58:31;;;;;;;1.67;1.30;;;4.50;98.20;;;;;;4897654;29;20485;-75
2021/12/03 17:01:04;;;;;;;1.70;1.50;;;4.50;98.20;;;;;;4876678;29;21196;-77
2021/12/03 17:03:37;;;;;;;1.60;1.47;;;4.50;98.20;;;;;;4895833;29;20469;-76
2021/12/03 17:09:10;;;;;;;1.70;1.50;;;4.60;98.20;;;;;;4883314;29;20878;-75
2021/12/03 17:20:41;;;;;;;1.60;1.40;;;4.70;98.20;;;;;;4861113;29;20473;-75
2021/12/03 17:31:58;;;;;;;1.70;1.50;;;4.70;98.20;;;;;;4872740;29;20554;-75
2021/12/03 17:51:15;;;;;;;1.70;1.40;;;4.60;98.20;;;;;;4869055;29;20538;-73
2021/12/03 17:53:57;;;;;;;1.70;1.40;;;4.60;98.20;;;;;;4880577;29;20633;-74
2021/12/03 17:56:27;;;;;;;1.67;1.40;;;4.60;98.20;;;;;;4872563;29;20561;-75
2021/12/03 17:58:57;;;;;;;1.67;1.40;;;4.60;98.20;;;;;;4882910;29;20501;-74
2021/12/03 18:01:30;;;;;;;1.67;1.30;;;4.60;98.20;;;;;;4872438;29;20990;-77
2021/12/03 18:04:07;;;;;;;1.60;1.40;;;4.50;98.20;;;;;;4879522;29;20497;-75
2021/12/03 18:09:42;;;;;;;1.60;1.30;;;4.50;98.20;;;;;;4874961;29;20554;-73
2021/12/03 18:45:27;;;;;;;1.70;1.60;;;4.30;98.20;;;;;;4882941;29;20544;-74
2021/12/03 18:53:50;;;;;;;1.63;1.40;;;4.40;98.20;;;;;;5060310;27;1299954;-74
2021/12/03 18:56:19;;;;;;;1.67;1.40;;;4.50;98.20;;;;;;5078532;28;20246;-76
2021/12/03 18:58:51;;;;;;;1.80;1.60;;;4.50;98.20;;;;;;5058464;28;20472;-75
2021/12/03 19:01:18;;;;;;;1.70;1.50;;;4.50;98.20;;;;;;5028821;28;20488;-74
2021/12/03 19:04:03;;;;;;;1.60;1.40;;;4.50;98.20;;;;;;5015480;28;21112;-76
2021/12/03 19:06:36;;;;;;;1.70;1.40;;;4.50;98.20;;;;;;5008955;28;20486;-74
2021/12/03 19:09:07;;;;;;;1.63;1.40;;;4.60;98.20;;;;;;5022508;28;20479;-75
2021/12/03 19:11:36;;;;;;;1.67;1.40;;;4.60;98.20;;;;;;5009683;28;20539;-76
2021/12/03 19:14:06;;;;;;;1.67;1.40;;;4.60;98.20;;;;;;5017494;28;20486;-76
2021/12/03 19:16:33;;;;;;;1.60;1.30;;;4.60;98.20;;;;;;5005791;28;20873;-75
2021/12/03 19:19:03;;;;;;;1.60;1.33;;;4.60;98.20;;;;;;5021024;28;20580;-75
2021/12/03 19:21:38;;;;;;;1.60;1.40;;;4.60;98.20;;;;;;5002836;28;20606;-76
2021/12/03 19:24:08;;;;;;;1.67;1.40;;;4.60;98.20;;;;;;5020124;28;20459;-75
2021/12/03 19:26:42;;;;;;;1.63;1.40;;;4.60;98.20;;;;;;5005643;28;20486;-74
2021/12/03 19:29:11;;;;;;;1.97;1.77;;;4.60;98.20;;;;;;5018545;28;20463;-75
2021/12/03 19:31:39;;;;;;;1.70;1.50;;;4.60;98.20;;;;;;5007032;28;20528;-75
2021/12/03 19:34:06;;;;;;;1.60;1.30;;;4.60;98.20;;;;;;5017677;28;20467;-75
2021/12/03 19:36:38;;;;;;;1.67;1.40;;;4.60;98.20;;;;;;5010016;28;20516;-77
2021/12/03 19:39:09;;;;;;;1.70;1.53;;;4.60;98.20;;;;;;5018432;28;20575;-77